Аэропорт: Белгород . Белгород

ICAO: UUOB

METAR:
2020-10-24 06:30:00
UUOB 240630Z 28003MPS 7000 NSC 12/08 Q1013 R29/010060 NOSIG
METAR:
Информация по данной станции не доступна